Time;durP1;ratioP1;P1;durP2;ratioP2;P2;SDS_P1;SDS_P2;PMS_P1;PMS_P2;Temp;Humidity;BMP_temperature;BMP_pressure;BME280_temperature;BME280_humidity;BME280_pressure;Samples;Min_cycle;Max_cycle;Signal;HPM_P1;HPM_P2
2022/11/15 00:00:45;;;;;;;9.63;6.55;;;6.10;81.30;;;4.30;100.00;95955.94;4903304;28;20184;-64
2022/11/15 00:03:24;;;;;;;9.15;7.15;;;6.10;81.50;;;4.29;100.00;95956.88;4928973;28;20299;-64
2022/11/15 00:05:50;;;;;;;9.73;6.57;;;6.10;81.90;;;4.29;100.00;95961.28;4907320;28;20701;-64
2022/11/15 00:08:16;;;;;;;9.07;6.75;;;6.10;81.90;;;4.28;100.00;95955.25;4891926;28;20447;-64
2022/11/15 00:10:42;;;;;;;10.93;6.28;;;6.10;81.90;;;4.29;100.00;95949.06;4903858;28;20876;-65
2022/11/15 00:13:10;;;;;;;10.13;6.38;;;6.10;81.90;;;4.29;100.00;95949.06;4929866;28;20315;-64
2022/11/15 00:15:40;;;;;;;9.68;6.88;;;6.10;81.70;;;4.27;100.00;95952.81;4924105;28;20339;-64
2022/11/15 00:18:11;;;;;;;11.35;6.95;;;6.10;81.70;;;4.25;100.00;95952.97;4923255;28;20338;-64
2022/11/15 00:20:37;;;;;;;9.88;6.75;;;6.10;81.70;;;4.24;100.00;95950.53;4908839;28;20412;-64
2022/11/15 00:23:05;;;;;;;8.48;6.45;;;6.10;81.50;;;4.20;100.00;95957.81;4911749;28;20424;-64
2022/11/15 00:25:32;;;;;;;9.63;6.53;;;6.00;80.90;;;4.18;100.00;95945.94;4911223;28;20479;-64
2022/11/15 00:27:59;;;;;;;8.93;6.57;;;6.00;81.00;;;4.14;100.00;95953.22;4910793;28;20367;-63
2022/11/15 00:30:25;;;;;;;9.35;6.63;;;5.90;80.90;;;4.10;100.00;95946.72;4935569;28;20416;-64
2022/11/15 00:32:51;;;;;;;11.43;6.60;;;5.90;81.00;;;4.09;100.00;95945.06;4932492;28;20333;-64
2022/11/15 00:35:17;;;;;;;10.52;6.90;;;5.90;81.00;;;4.04;100.00;95955.09;4907325;28;20206;-64
2022/11/15 00:37:43;;;;;;;13.20;7.78;;;5.70;80.50;;;3.98;100.00;95956.53;4924019;28;20457;-65
2022/11/15 00:40:12;;;;;;;10.73;7.97;;;5.60;80.80;;;3.90;100.00;95940.88;4928940;28;20454;-64
2022/11/15 00:42:38;;;;;;;15.30;8.82;;;5.70;81.00;;;3.86;100.00;95941.31;4939060;28;20553;-64
2022/11/15 00:45:05;;;;;;;14.10;10.18;;;5.60;81.00;;;3.83;100.00;95936.41;4937343;28;20416;-64
2022/11/15 00:47:31;;;;;;;19.42;11.32;;;5.60;80.90;;;3.78;100.00;95930.84;4907392;28;20560;-63
2022/11/15 00:49:57;;;;;;;15.50;10.27;;;5.60;80.90;;;3.73;100.00;95930.47;4911565;28;20353;-64
2022/11/15 00:52:23;;;;;;;14.13;9.55;;;5.50;80.70;;;3.72;100.00;95928.84;4939778;28;20321;-64
2022/11/15 00:54:49;;;;;;;11.60;8.35;;;5.50;81.10;;;3.72;100.00;95923.66;4922691;28;20789;-64
2022/11/15 00:57:15;;;;;;;12.50;8.32;;;5.60;81.50;;;3.73;100.00;95920.06;4906820;28;20366;-64
2022/11/15 00:59:41;;;;;;;10.20;7.53;;;5.60;81.80;;;3.77;100.00;95917.03;4906503;28;20315;-64
2022/11/15 01:02:07;;;;;;;11.38;7.20;;;5.60;82.00;;;3.78;100.00;95912.63;4892494;28;20353;-64
2022/11/15 01:04:33;;;;;;;10.82;6.70;;;5.60;82.10;;;3.79;100.00;95924.66;4921486;28;20437;-64
2022/11/15 01:07:00;;;;;;;9.23;6.68;;;5.60;82.10;;;3.77;100.00;95916.19;4906201;28;20327;-64
2022/11/15 01:09:25;;;;;;;10.13;6.07;;;5.60;81.80;;;3.75;100.00;95916.34;4912753;28;20530;-64
2022/11/15 01:11:52;;;;;;;8.75;6.00;;;5.60;81.50;;;3.74;100.00;95911.31;4922239;28;20768;-64
2022/11/15 01:14:18;;;;;;;8.32;6.05;;;5.60;81.30;;;3.72;100.00;95915.84;4919963;28;20406;-64
2022/11/15 01:16:44;;;;;;;9.25;6.03;;;5.60;81.20;;;3.68;100.00;95913.56;4918885;28;20414;-64
2022/11/15 01:19:11;;;;;;;8.68;6.03;;;5.60;81.30;;;3.69;100.00;95901.34;4906771;28;20861;-64
2022/11/15 01:21:36;;;;;;;9.35;6.15;;;5.60;81.20;;;3.67;100.00;95900.69;4956281;28;20044;-63
2022/11/15 01:24:03;;;;;;;7.63;5.38;;;5.60;81.10;;;3.67;100.00;95905.91;4974149;28;20025;-63
2022/11/15 01:26:28;;;;;;;10.10;6.40;;;5.50;81.00;;;3.63;100.00;95908.00;4931091;28;20033;-63
2022/11/15 01:28:54;;;;;;;13.13;6.60;;;5.60;81.00;;;3.62;100.00;95903.75;4963607;28;20335;-63
2022/11/15 01:31:20;;;;;;;9.65;5.78;;;5.50;81.10;;;3.61;100.00;95902.09;4975818;28;20354;-63
2022/11/15 01:33:50;;;;;;;8.45;5.80;;;5.50;81.10;;;3.62;100.00;95900.31;4985181;28;20036;-64
2022/11/15 01:36:19;;;;;;;8.57;5.82;;;5.50;81.20;;;3.60;100.00;95887.47;4981601;28;20065;-63
2022/11/15 01:38:44;;;;;;;7.72;5.22;;;5.50;81.20;;;3.59;100.00;95893.63;4981236;28;20033;-63
2022/11/15 01:41:19;;;;;;;9.68;6.10;;;5.40;81.10;;;3.57;100.00;95879.97;4977708;28;20238;-62
2022/11/15 01:43:46;;;;;;;8.75;5.55;;;5.40;81.10;;;3.56;100.00;95880.13;4964925;28;20060;-62
2022/11/15 01:46:23;;;;;;;8.05;5.50;;;5.40;81.20;;;3.57;100.00;95877.38;4961022;28;20038;-62
2022/11/15 01:48:50;;;;;;;7.47;5.25;;;5.40;81.40;;;3.56;100.00;95874.91;4969867;28;20049;-63
2022/11/15 01:51:17;;;;;;;8.68;5.50;;;5.40;81.40;;;3.56;100.00;95873.13;4952882;28;20026;-62
2022/11/15 01:53:45;;;;;;;9.82;5.20;;;5.40;81.50;;;3.56;100.00;95878.34;4963597;28;20033;-62
2022/11/15 01:56:16;;;;;;;7.22;5.00;;;5.40;81.30;;;3.49;100.00;95882.50;4983049;28;20041;-62
2022/11/15 01:58:42;;;;;;;8.63;5.90;;;5.10;81.00;;;3.38;100.00;95872.31;4956660;28;20602;-62
2022/11/15 02:01:08;;;;;;;9.30;5.57;;;5.10;81.00;;;3.36;100.00;95863.88;4977656;28;20052;-62
2022/11/15 02:03:50;;;;;;;9.63;5.60;;;5.00;81.00;;;3.27;100.00;95869.97;4961491;28;20409;-62
2022/11/15 02:06:16;;;;;;;8.85;6.13;;;5.00;81.00;;;3.22;100.00;95874.81;4965723;28;20060;-63
2022/11/15 02:08:42;;;;;;;8.52;5.85;;;5.00;80.90;;;3.18;100.00;95868.28;4971581;28;20447;-62
2022/11/15 02:11:13;;;;;;;9.60;6.22;;;5.00;81.00;;;3.13;100.00;95849.69;4980002;28;20026;-62
2022/11/15 02:13:39;;;;;;;9.35;6.07;;;4.90;81.10;;;3.13;100.00;95860.91;4963696;28;20052;-62
2022/11/15 02:16:34;;;;;;;8.77;6.25;;;4.90;81.00;;;3.10;100.00;95856.00;4942907;28;20060;-62
2022/11/15 02:19:14;;;;;;;11.00;6.47;;;4.90;81.00;;;3.07;100.00;95861.50;4975051;28;20041;-62
2022/11/15 02:21:54;;;;;;;7.88;5.78;;;4.90;81.10;;;3.03;100.00;95855.81;4981261;28;20079;-62
2022/11/15 02:24:41;;;;;;;8.65;6.13;;;4.90;81.00;;;3.01;100.00;95857.72;4963928;28;20041;-62
2022/11/15 02:27:47;;;;;;;12.48;6.63;;;4.90;81.10;;;2.99;100.00;95849.28;4991426;28;20047;-62
2022/11/15 02:30:24;;;;;;;8.52;5.40;;;4.80;81.20;;;2.97;100.00;95851.19;4978521;28;20160;-62
2022/11/15 02:33:24;;;;;;;8.77;6.35;;;4.80;81.20;;;2.97;100.00;95840.81;4981151;28;20087;-62
2022/11/15 02:36:27;;;;;;;10.43;7.00;;;4.80;81.80;;;3.03;100.00;95844.59;4981845;28;20033;-62
2022/11/15 02:39:03;;;;;;;10.60;6.20;;;4.90;82.60;;;3.04;100.00;95836.66;4960144;28;20037;-62
2022/11/15 02:41:53;;;;;;;10.90;6.75;;;5.00;82.80;;;3.10;100.00;95839.59;4969460;28;20196;-62
2022/11/15 02:44:34;;;;;;;10.13;7.20;;;5.00;83.00;;;3.14;100.00;95840.94;4962428;28;20080;-62
2022/11/15 02:47:12;;;;;;;9.02;6.47;;;5.10;83.00;;;3.16;100.00;95836.41;4962664;28;20071;-62
2022/11/15 02:49:48;;;;;;;8.80;6.03;;;5.10;82.80;;;3.17;100.00;95840.63;4971312;28;20052;-62
2022/11/15 02:52:20;;;;;;;8.98;6.47;;;5.10;82.80;;;3.19;100.00;95830.94;4932673;28;20123;-62
2022/11/15 02:54:56;;;;;;;8.45;6.57;;;5.10;83.20;;;3.23;100.00;95827.06;4963150;28;20026;-62
2022/11/15 02:57:52;;;;;;;12.55;6.45;;;5.10;83.20;;;3.26;100.00;95818.97;4963145;28;20037;-62
2022/11/15 03:00:21;;;;;;;9.70;6.80;;;5.10;83.50;;;3.29;100.00;95813.47;4963529;28;20056;-62
2022/11/15 03:03:22;;;;;;;10.85;6.95;;;5.10;83.50;;;3.33;100.00;95822.56;4979326;28;20052;-64
2022/11/15 03:06:01;;;;;;;11.80;6.50;;;5.20;83.70;;;3.32;100.00;95811.38;4996978;28;20037;-62
2022/11/15 03:08:46;;;;;;;10.55;6.68;;;5.20;83.70;;;3.37;100.00;95810.91;4948248;28;20033;-62
2022/11/15 03:11:15;;;;;;;9.20;6.32;;;5.20;83.50;;;3.38;100.00;95802.13;4965609;28;20055;-63
2022/11/15 03:14:11;;;;;;;11.05;6.40;;;5.20;83.40;;;3.41;100.00;95809.66;4930708;28;20055;-63
2022/11/15 03:16:47;;;;;;;10.65;7.07;;;5.20;83.20;;;3.40;100.00;95810.63;4964403;28;20032;-63
2022/11/15 03:19:48;;;;;;;47.88;30.08;;;5.20;83.00;;;3.41;100.00;95801.88;4983151;28;20076;-63
2022/11/15 03:22:20;;;;;;;17.20;11.07;;;5.30;83.60;;;3.44;100.00;95811.13;4964162;28;20101;-63
2022/11/15 03:24:47;;;;;;;10.10;7.53;;;5.30;83.10;;;3.41;100.00;95812.25;5013692;28;20132;-62
2022/11/15 03:27:15;;;;;;;9.15;7.15;;;5.30;82.60;;;3.40;100.00;95807.22;5008528;28;20606;-63
2022/11/15 03:29:44;;;;;;;10.07;6.40;;;5.20;82.60;;;3.36;100.00;95801.47;5026455;28;20095;-64
2022/11/15 03:32:26;;;;;;;13.00;6.70;;;5.20;82.50;;;3.33;100.00;95786.19;5045238;28;20620;-65
2022/11/15 03:34:59;;;;;;;;;;;5.10;82.50;;;3.31;100.00;95777.72;5022802;28;20037;-68
2022/11/15 03:37:59;;;;;;;38.60;23.50;;;5.10;83.00;;;3.32;100.00;95784.56;4975178;28;20236;-66
2022/11/15 03:40:38;;;;;;;12.15;8.32;;;5.20;83.40;;;3.29;100.00;95792.66;4967395;28;20147;-69
2022/11/15 03:43:14;;;;;;;10.82;6.40;;;5.10;82.60;;;3.24;100.00;95797.50;4969403;28;20055;-64
2022/11/15 03:45:48;;;;;;;12.32;6.68;;;5.00;82.20;;;3.21;100.00;95795.22;4983304;28;20037;-65
2022/11/15 03:48:18;;;;;;;7.63;6.15;;;5.00;82.20;;;3.14;100.00;95783.75;4970986;28;20086;-64
2022/11/15 03:50:45;;;;;;;10.38;6.28;;;5.00;82.10;;;3.13;100.00;95788.16;4953244;28;20448;-66
2022/11/15 03:53:10;;;;;;;11.65;6.15;;;4.90;82.00;;;3.11;100.00;95794.47;4951887;28;20573;-64
2022/11/15 03:55:36;;;;;;;9.82;6.00;;;4.90;81.90;;;3.06;100.00;95797.53;4981734;28;20034;-64
2022/11/15 03:58:03;;;;;;;9.27;6.35;;;4.90;81.30;;;3.02;100.00;95797.00;4982766;28;20234;-64
2022/11/15 04:00:29;;;;;;;10.95;6.90;;;4.80;81.50;;;3.00;100.00;95787.72;4980508;28;20111;-62
2022/11/15 04:02:55;;;;;;;9.63;6.50;;;4.80;81.70;;;2.94;100.00;95783.97;4953622;28;20044;-63
2022/11/15 04:05:20;;;;;;;10.05;6.63;;;4.80;81.70;;;2.91;100.00;95781.63;4957932;28;20026;-62
2022/11/15 04:07:46;;;;;;;10.23;6.47;;;4.70;81.90;;;2.89;100.00;95775.78;4966599;28;20343;-63
2022/11/15 04:10:13;;;;;;;8.80;6.32;;;4.70;82.10;;;2.87;100.00;95769.91;4964436;28;20346;-62
2022/11/15 04:12:42;;;;;;;61.65;38.03;;;4.70;82.30;;;2.91;100.00;95778.22;4947180;28;20029;-62
2022/11/15 04:15:16;;;;;;;35.22;22.70;;;4.70;83.50;;;2.92;100.00;95766.88;4979259;28;20548;-62
2022/11/15 04:17:50;;;;;;;10.85;7.53;;;4.80;83.70;;;2.94;100.00;95772.72;4968020;28;20037;-62
2022/11/15 04:26:00;;;;;;;15.32;11.27;;;4.80;82.80;;;3.00;100.00;95762.56;4968025;28;20075;-64
2022/11/15 04:28:25;;;;;;;31.75;22.55;;;4.90;83.50;;;3.03;100.00;95754.47;4980893;28;20523;-63
2022/11/15 04:30:52;;;;;;;32.42;20.88;;;5.00;84.10;;;3.06;100.00;95748.16;4980396;28;20033;-66
2022/11/15 04:33:17;;;;;;;20.42;13.70;;;5.00;84.10;;;3.10;100.00;95751.25;4967556;28;20029;-65
2022/11/15 04:35:43;;;;;;;12.40;6.57;;;5.00;83.70;;;3.11;100.00;95752.88;4998491;28;20362;-63
2022/11/15 04:38:10;;;;;;;8.30;5.35;;;5.00;82.20;;;3.05;100.00;95754.31;4974503;28;20049;-66
2022/11/15 04:40:37;;;;;;;8.77;5.70;;;4.90;81.60;;;3.01;100.00;95753.81;4962453;28;20033;-64
2022/11/15 04:43:03;;;;;;;8.50;5.72;;;4.90;81.60;;;2.97;100.00;95742.09;4966423;28;20114;-66
2022/11/15 04:45:29;;;;;;;7.18;5.28;;;4.80;81.70;;;2.95;100.00;95744.03;4930564;28;20609;-63
2022/11/15 04:47:55;;;;;;;6.35;4.82;;;4.90;81.50;;;2.95;100.00;95757.00;4931198;28;20394;-63
2022/11/15 04:50:22;;;;;;;8.13;5.38;;;4.80;81.40;;;2.92;100.00;95759.88;4873033;28;20351;-67
2022/11/15 04:52:53;;;;;;;7.60;5.05;;;4.80;81.30;;;2.90;100.00;95755.81;4896042;28;20367;-65
2022/11/15 04:55:19;;;;;;;6.78;5.25;;;4.80;81.10;;;2.86;100.00;95752.69;4916044;28;20359;-63
2022/11/15 04:57:45;;;;;;;7.13;5.13;;;4.70;81.30;;;2.81;100.00;95752.34;4910415;28;20484;-65
2022/11/15 05:00:13;;;;;;;7.10;5.30;;;4.70;81.30;;;2.79;100.00;95751.69;4904222;28;20404;-65
2022/11/15 05:05:24;;;;;;;8.40;5.18;;;4.60;81.40;;;2.74;100.00;95743.53;4939164;28;20803;-65
2022/11/15 05:07:50;;;;;;;7.80;5.40;;;4.60;81.50;;;2.73;100.00;95741.91;4908425;28;20624;-65
2022/11/15 05:10:16;;;;;;;6.68;4.78;;;4.60;81.50;;;2.72;100.00;95737.66;4939856;28;20488;-67
2022/11/15 05:12:42;;;;;;;6.10;4.97;;;4.60;81.50;;;2.71;100.00;95730.81;4941915;28;20360;-66
2022/11/15 05:15:09;;;;;;;6.85;5.05;;;4.60;81.50;;;2.71;100.00;95736.00;4938938;28;20334;-68
2022/11/15 05:17:35;;;;;;;7.03;4.63;;;4.60;81.70;;;2.70;100.00;95736.97;4922796;28;20657;-68
2022/11/15 05:20:01;;;;;;;6.50;4.50;;;4.50;81.70;;;2.69;100.00;95735.34;4941338;28;20436;-69
2022/11/15 05:22:27;;;;;;;7.75;4.95;;;4.60;81.70;;;2.67;100.00;95725.09;4907583;28;20273;-66
2022/11/15 05:24:53;;;;;;;20.20;13.13;;;4.60;81.80;;;2.69;100.00;95722.34;4906927;28;20323;-66
2022/11/15 05:27:19;;;;;;;36.13;22.50;;;4.60;82.50;;;2.70;100.00;95718.78;4907789;28;20802;-67
2022/11/15 05:29:45;;;;;;;12.18;7.45;;;4.60;82.80;;;2.68;100.00;95716.34;4924585;28;20301;-66
2022/11/15 05:32:12;;;;;;;6.78;4.82;;;4.60;82.30;;;2.69;100.00;95719.75;4937407;28;20735;-67
2022/11/15 05:34:38;;;;;;;6.85;4.32;;;4.60;81.90;;;2.68;100.00;95715.53;4907251;28;20990;-72
2022/11/15 05:37:04;;;;;;;6.45;4.35;;;4.60;81.80;;;2.69;100.00;95706.78;4902791;28;20401;-66
2022/11/15 05:39:30;;;;;;;6.07;4.18;;;4.60;81.70;;;2.70;100.00;95703.22;4902098;28;20377;-65
2022/11/15 05:42:06;;;;;;;7.05;4.55;;;4.60;81.60;;;2.69;100.00;95709.38;4890183;28;20346;-65
2022/11/15 05:44:32;;;;;;;8.27;4.40;;;4.60;81.50;;;2.68;100.00;95710.34;4904831;28;20350;-70
2022/11/15 05:46:58;;;;;;;7.00;4.45;;;4.60;81.40;;;2.67;100.00;95703.50;4901279;28;20485;-66
2022/11/15 05:49:32;;;;;;;6.43;4.20;;;4.60;81.30;;;2.66;100.00;95702.69;4917747;28;20351;-67
2022/11/15 05:51:57;;;;;;;6.13;4.50;;;4.60;81.20;;;2.65;100.00;95710.66;4925837;28;20702;-68
2022/11/15 05:54:24;;;;;;;6.55;4.50;;;4.60;81.20;;;2.63;100.00;95710.78;4929591;28;20180;-69
2022/11/15 05:56:50;;;;;;;6.32;4.45;;;4.60;80.90;;;2.59;100.00;95711.25;4923770;28;20516;-65
2022/11/15 05:59:16;;;;;;;6.07;4.20;;;4.50;80.80;;;2.56;100.00;95709.78;4932161;28;20493;-65
2022/11/15 06:01:42;;;;;;;7.03;4.47;;;4.40;80.50;;;2.52;100.00;95705.03;4919952;28;20480;-65
2022/11/15 06:04:08;;;;;;;6.75;4.82;;;4.40;80.60;;;2.48;100.00;95696.69;4940022;28;20206;-65
2022/11/15 06:06:34;;;;;;;7.13;4.75;;;4.40;80.60;;;2.43;100.00;95697.16;4929655;28;20381;-65
2022/11/15 06:09:00;;;;;;;6.78;4.65;;;4.30;80.60;;;2.40;100.00;95699.22;4906086;28;20358;-66
2022/11/15 06:11:26;;;;;;;7.97;4.70;;;4.30;80.70;;;2.39;100.00;95695.00;4906741;28;20385;-65
2022/11/15 06:13:53;;;;;;;6.97;4.70;;;4.30;81.00;;;2.40;100.00;95697.44;4906759;28;20202;-66
2022/11/15 06:16:18;;;;;;;9.82;4.80;;;4.30;81.20;;;2.39;100.00;95695.00;4925645;28;20840;-66
2022/11/15 06:18:45;;;;;;;8.98;4.50;;;4.30;81.40;;;2.42;100.00;95692.94;4935364;28;20439;-66
2022/11/15 06:21:10;;;;;;;8.65;4.90;;;4.30;81.50;;;2.42;100.00;95690.31;4949028;28;20483;-67
2022/11/15 06:23:37;;;;;;;6.63;4.65;;;4.40;81.60;;;2.43;100.00;95681.56;4971139;28;20578;-66
2022/11/15 06:26:03;;;;;;;7.43;4.50;;;4.40;81.60;;;2.46;100.00;95681.28;4936589;28;20401;-75
2022/11/15 06:28:30;;;;;;;7.07;5.15;;;4.40;81.70;;;2.49;100.00;95676.75;4930855;28;20412;-73
2022/11/15 06:30:56;;;;;;;9.45;5.00;;;4.40;81.60;;;2.50;100.00;95681.81;4938077;28;20346;-72
2022/11/15 06:33:23;;;;;;;9.13;4.90;;;4.50;81.70;;;2.53;100.00;95683.28;4923489;28;20369;-74
2022/11/15 06:35:49;;;;;;;9.13;4.78;;;4.50;81.70;;;2.55;100.00;95683.97;4926157;28;20045;-72
2022/11/15 06:38:15;;;;;;;8.15;4.78;;;4.50;81.60;;;2.57;100.00;95692.41;4928673;28;20362;-68
2022/11/15 06:40:41;;;;;;;9.55;4.70;;;4.50;81.20;;;2.55;100.00;95696.94;4879878;28;20041;-76
2022/11/15 06:43:07;;;;;;;11.82;5.20;;;4.50;80.80;;;2.52;100.00;95697.25;4870465;28;20768;-73
2022/11/15 06:45:33;;;;;;;10.73;4.97;;;4.40;80.80;;;2.49;100.00;95694.91;4889232;28;20253;-69
2022/11/15 06:47:59;;;;;;;8.60;4.90;;;4.40;80.80;;;2.46;100.00;95699.44;4899241;28;20318;-70
2022/11/15 06:50:25;;;;;;;8.23;5.10;;;4.40;80.80;;;2.46;100.00;95703.81;4952378;28;20505;-69
2022/11/15 06:52:51;;;;;;;7.22;4.72;;;4.40;80.80;;;2.47;100.00;95695.06;4910917;28;20516;-70
2022/11/15 06:55:17;;;;;;;8.80;4.93;;;4.40;80.90;;;2.50;100.00;95693.97;4909703;28;20555;-71
2022/11/15 06:57:48;;;;;;;7.60;5.47;;;4.60;81.00;;;2.53;100.00;95699.69;4909626;28;20203;-71
2022/11/15 07:00:15;;;;;;;;;;;4.60;81.00;;;2.57;100.00;95705.38;4926087;28;20469;-70
2022/11/15 07:02:41;;;;;;;9.00;4.97;;;4.70;81.30;;;2.60;100.00;95710.28;4938315;28;20234;-71
2022/11/15 07:05:07;;;;;;;7.40;5.53;;;4.70;81.10;;;2.66;100.00;95712.28;4922947;28;20402;-70
2022/11/15 07:07:33;;;;;;;8.18;5.43;;;4.70;81.10;;;2.70;100.00;95703.22;4909928;28;20509;-69
2022/11/15 07:10:00;;;;;;;8.90;5.70;;;4.80;81.00;;;2.75;100.00;95706.19;4926527;28;20389;-69
2022/11/15 07:12:26;;;;;;;8.75;5.65;;;4.90;81.00;;;2.82;100.00;95709.81;4922400;28;20406;-69
2022/11/15 07:14:52;;;;;;;9.48;6.25;;;5.00;80.70;;;2.87;100.00;95710.16;4921390;28;20343;-70
2022/11/15 07:17:18;;;;;;;9.73;6.15;;;5.00;80.60;;;2.94;100.00;95706.03;4889201;28;20516;-70
2022/11/15 07:19:44;;;;;;;10.15;6.35;;;5.10;80.40;;;3.00;100.00;95704.59;4905830;28;20460;-70
2022/11/15 07:22:10;;;;;;;9.05;6.10;;;5.20;80.00;;;3.08;100.00;95710.66;4920645;28;20261;-69
2022/11/15 07:24:36;;;;;;;11.43;6.15;;;5.40;79.50;;;3.16;100.00;95709.06;4888688;28;20445;-68
2022/11/15 07:27:02;;;;;;;9.77;5.93;;;5.50;79.30;;;3.25;100.00;95708.16;4892020;28;20354;-71
2022/11/15 07:29:28;;;;;;;9.40;6.32;;;5.70;78.80;;;3.33;100.00;95705.59;4895989;28;20597;-69
2022/11/15 07:31:54;;;;;;;9.63;6.30;;;5.80;78.40;;;3.41;100.00;95713.47;4909483;28;20360;-70
2022/11/15 07:34:20;;;;;;;10.13;6.25;;;5.90;78.10;;;3.48;100.00;95708.47;4902903;28;20582;-69
2022/11/15 07:36:47;;;;;;;8.98;6.18;;;6.00;77.90;;;3.57;100.00;95703.13;4906164;28;20449;-70
2022/11/15 07:39:16;;;;;;;7.78;5.95;;;6.10;77.90;;;3.67;100.00;95703.03;4908599;28;20320;-70
2022/11/15 07:41:43;;;;;;;10.75;5.97;;;6.10;77.90;;;3.77;100.00;95702.91;4911623;28;20477;-70
2022/11/15 07:44:12;;;;;;;9.05;5.53;;;6.10;77.70;;;3.84;100.00;95709.09;4925740;28;20270;-73
2022/11/15 07:46:39;;;;;;;7.85;5.82;;;6.10;77.60;;;3.92;100.00;95719.56;4930553;28;20346;-70
2022/11/15 07:49:05;;;;;;;8.82;5.47;;;6.20;77.20;;;3.98;100.00;95705.91;4918371;28;20551;-69
2022/11/15 07:51:31;;;;;;;8.23;5.88;;;6.30;77.20;;;4.07;100.00;95710.16;4968875;28;20029;-68
2022/11/15 07:53:56;;;;;;;8.68;5.70;;;6.40;77.20;;;4.13;100.00;95696.53;4984506;28;20355;-68
2022/11/15 07:56:22;;;;;;;9.93;5.50;;;6.40;77.40;;;4.18;100.00;95686.44;4968485;28;20295;-71
2022/11/15 07:58:50;;;;;;;11.63;5.50;;;6.50;77.20;;;4.28;100.00;95686.28;4981399;28;20587;-72
2022/11/15 08:01:15;;;;;;;11.95;6.25;;;6.60;76.90;;;4.39;100.00;95693.00;4950653;28;20040;-69
2022/11/15 08:03:41;;;;;;;9.48;5.40;;;6.60;77.10;;;4.48;100.00;95698.03;4981968;28;20368;-68
2022/11/15 08:06:07;;;;;;;8.30;5.45;;;6.80;77.00;;;4.55;100.00;95693.03;4982206;28;20508;-69
2022/11/15 08:08:33;;;;;;;7.47;4.88;;;6.90;76.60;;;4.67;100.00;95702.13;4965540;28;20082;-69
2022/11/15 08:10:59;;;;;;;8.02;5.45;;;7.00;75.60;;;4.77;100.00;95697.59;4980730;28;20334;-70
2022/11/15 08:13:25;;;;;;;9.00;4.90;;;7.10;76.30;;;4.88;100.00;95684.22;4989410;28;20037;-68
2022/11/15 08:15:51;;;;;;;7.80;5.15;;;7.20;77.10;;;5.00;100.00;95681.28;4962576;28;20172;-67
2022/11/15 08:18:17;;;;;;;10.25;5.78;;;7.30;77.10;;;5.12;100.00;95665.13;4963733;28;20215;-67
2022/11/15 08:20:43;;;;;;;11.82;6.50;;;7.50;77.00;;;5.26;100.00;95671.47;4975467;28;20305;-73
2022/11/15 08:23:11;;;;;;;9.45;7.25;;;7.70;76.30;;;5.45;100.00;95670.28;4971515;28;20342;-69
2022/11/15 08:25:37;;;;;;;10.30;7.18;;;8.10;75.10;;;5.61;100.00;95664.19;4982475;28;20060;-64
2022/11/15 08:28:05;;;;;;;16.52;10.93;;;8.30;74.00;;;5.80;100.00;95661.16;4981709;28;20354;-65
2022/11/15 08:30:41;;;;;;;6.15;4.45;;;8.60;72.80;;;6.01;100.00;95648.38;4963389;28;20068;-66
2022/11/15 08:33:11;;;;;;;5.28;3.90;;;9.10;70.00;;;6.22;100.00;95636.50;4965363;28;20037;-66
2022/11/15 08:35:37;;;;;;;6.93;3.83;;;9.50;67.40;;;6.42;100.00;95632.47;4965810;28;20396;-68
2022/11/15 08:38:03;;;;;;;6.70;4.32;;;10.00;66.10;;;6.62;100.00;95628.38;4949138;28;20574;-74
2022/11/15 08:40:29;;;;;;;5.00;3.90;;;10.40;65.10;;;6.88;100.00;95621.94;4962550;28;20354;-70
2022/11/15 08:42:54;;;;;;;7.22;4.63;;;10.50;63.60;;;7.15;100.00;95629.19;4963212;28;20374;-70
2022/11/15 08:45:20;;;;;;;5.68;3.95;;;10.70;62.90;;;7.45;100.00;95630.00;4961383;28;20502;-70
2022/11/15 08:47:46;;;;;;;5.32;4.18;;;11.10;61.60;;;7.76;100.00;95631.63;4933464;28;20568;-70
2022/11/15 08:50:17;;;;;;;7.57;4.03;;;11.80;60.30;;;8.06;100.00;95632.38;4918265;28;20221;-70
2022/11/15 08:52:44;;;;;;;;;;;12.60;57.80;;;8.37;92.37;95630.31;4926364;28;20126;-73
2022/11/15 08:55:10;;;;;;;5.28;3.75;;;13.20;55.20;;;8.67;99.92;95630.22;4923689;28;20170;-73
2022/11/15 08:57:37;;;;;;;6.35;3.78;;;13.90;53.40;;;8.98;97.06;95625.41;4919606;28;20846;-72
2022/11/15 09:00:04;;;;;;;5.45;3.30;;;14.50;50.90;;;9.33;95.16;95633.34;4924921;28;20415;-70
2022/11/15 09:02:30;;;;;;;10.27;3.85;;;15.10;49.10;;;9.66;91.72;95618.56;4923318;28;20449;-73
2022/11/15 09:04:56;;;;;;;8.50;5.65;;;15.60;47.60;;;10.01;91.00;95623.78;4892219;28;20345;-69
2022/11/15 09:07:22;;;;;;;5.85;3.92;;;16.30;46.40;;;10.35;88.58;95615.81;4904636;28;20599;-70
2022/11/15 09:09:48;;;;;;;6.47;4.00;;;17.00;44.40;;;10.70;88.02;95613.84;4908920;28;20365;-69
2022/11/15 09:12:14;;;;;;;6.18;3.92;;;17.70;43.00;;;11.00;86.08;95616.88;4904462;28;20353;-70
2022/11/15 09:14:41;;;;;;;6.15;3.80;;;18.50;41.50;;;11.37;84.31;95608.56;4899323;28;20357;-67
2022/11/15 09:17:10;;;;;;;8.85;4.30;;;19.30;39.20;;;11.69;80.73;95605.00;4897243;28;20709;-69
2022/11/15 09:19:36;;;;;;;5.50;3.83;;;20.30;37.70;;;12.01;82.49;95600.69;4898589;28;20416;-67
2022/11/15 09:22:06;;;;;;;4.85;4.35;;;21.20;36.20;;;12.33;80.13;95598.88;4880898;28;20347;-68
2022/11/15 09:24:32;;;;;;;5.30;4.03;;;21.80;34.90;;;12.68;81.58;95596.66;4882949;28;20315;-67
2022/11/15 09:26:58;;;;;;;4.68;3.70;;;22.60;33.70;;;12.98;80.34;95590.72;4901001;28;20908;-67
2022/11/15 09:29:24;;;;;;;5.20;3.65;;;23.10;32.30;;;13.32;78.55;95581.50;4895149;28;20510;-68
2022/11/15 09:31:52;;;;;;;6.53;4.40;;;23.90;31.50;;;13.72;75.88;95581.88;4905101;28;20795;-67
2022/11/15 09:34:19;;;;;;;5.28;3.80;;;24.60;30.60;;;14.07;77.88;95577.59;4905715;28;20569;-69
2022/11/15 09:36:45;;;;;;;4.80;3.70;;;25.20;29.70;;;14.45;76.32;95581.78;4898319;28;20036;-68
2022/11/15 09:39:11;;;;;;;7.10;3.97;;;25.60;29.00;;;14.83;75.64;95564.72;4932578;28;20471;-70
2022/11/15 09:42:01;;;;;;;6.38;3.72;;;26.00;28.40;;;15.18;62.94;95554.97;4922683;28;20485;-70
2022/11/15 09:44:47;;;;;;;5.38;3.60;;;26.10;28.00;;;15.61;63.81;95553.78;4937852;28;20366;-69
2022/11/15 09:47:42;;;;;;;4.90;3.72;;;26.60;27.70;;;16.06;61.87;95545.94;4921429;28;20455;-70
2022/11/15 09:50:14;;;;;;;4.82;3.80;;;26.70;27.90;;;16.37;69.90;95546.50;4935579;28;20551;-69
2022/11/15 09:52:43;;;;;;;5.18;3.65;;;27.00;27.60;;;16.68;66.27;95542.56;4908393;28;20427;-71
2022/11/15 09:55:13;;;;;;;4.53;3.33;;;27.40;27.40;;;16.91;67.68;95531.78;4903556;28;20424;-71
2022/11/15 09:57:54;;;;;;;5.22;3.60;;;27.60;26.90;;;17.10;61.23;95527.00;4889691;28;20497;-72
2022/11/15 10:00:23;;;;;;;4.10;3.40;;;28.00;26.50;;;17.25;63.82;95529.09;4926075;28;20483;-71
2022/11/15 10:03:17;;;;;;;4.68;3.60;;;28.60;26.00;;;17.63;55.92;95514.97;4896748;28;20331;-69
2022/11/15 10:05:46;;;;;;;4.20;3.28;;;29.60;24.90;;;17.93;60.16;95511.91;4937838;28;20352;-69
2022/11/15 10:08:36;;;;;;;4.80;3.30;;;30.40;24.00;;;18.36;52.40;95505.72;4939391;28;20596;-68
2022/11/15 10:11:15;;;;;;;6.22;3.05;;;31.10;23.20;;;18.83;57.29;95505.06;4935655;28;20463;-69
2022/11/15 10:13:44;;;;;;;3.88;3.15;;;31.90;22.10;;;19.37;59.36;95500.34;4908122;28;20353;-68
2022/11/15 10:16:28;;;;;;;4.22;2.90;;;32.80;21.70;;;19.88;49.66;95489.91;4925382;28;20156;-67
2022/11/15 10:19:26;;;;;;;5.90;4.47;;;33.40;20.80;;;20.38;47.21;95477.78;4945559;28;20365;-69
2022/11/15 10:22:00;;;;;;;5.97;4.07;;;33.60;20.50;;;20.75;49.60;95472.19;4927966;28;20298;-70
2022/11/15 10:24:28;;;;;;;3.58;2.85;;;33.30;20.90;;;21.00;52.90;95474.84;4929838;28;20199;-71
2022/11/15 10:26:56;;;;;;;6.72;2.95;;;33.10;21.10;;;21.22;54.07;95469.19;4911786;28;20365;-69
2022/11/15 10:29:23;;;;;;;4.78;2.85;;;33.30;20.70;;;21.39;52.77;95461.69;4900878;28;20354;-70
2022/11/15 10:31:49;;;;;;;3.17;2.33;;;33.50;20.50;;;21.54;51.49;95446.66;4898582;28;20317;-70
2022/11/15 10:34:18;;;;;;;3.42;2.35;;;32.60;20.90;;;21.57;48.01;95448.78;4908732;28;20319;-70
2022/11/15 10:37:03;;;;;;;3.08;2.28;;;31.10;22.30;;;21.38;42.52;95449.38;4925091;28;20488;-71
2022/11/15 10:39:29;;;;;;;3.55;2.50;;;29.40;24.20;;;21.04;48.24;95451.81;4940667;28;20365;-69
2022/11/15 10:41:55;;;;;;;2.92;2.38;;;28.20;25.10;;;20.90;46.98;95453.47;4925761;28;20353;-71